sensor_id;sensor_type;location;lat;lon;timestamp;temperature;humidity
68480;DHT22;55469;48.934;12.050;2023-08-20T00:00:38;26.40;79.40
68480;DHT22;55469;48.934;12.050;2023-08-20T00:03:12;26.40;81.10
68480;DHT22;55469;48.934;12.050;2023-08-20T00:05:40;26.30;79.60
68480;DHT22;55469;48.934;12.050;2023-08-20T00:08:06;26.30;79.40
68480;DHT22;55469;48.934;12.050;2023-08-20T00:10:32;26.30;79.80
68480;DHT22;55469;48.934;12.050;2023-08-20T00:12:58;26.30;82.10
68480;DHT22;55469;48.934;12.050;2023-08-20T00:15:24;26.30;82.80
68480;DHT22;55469;48.934;12.050;2023-08-20T00:17:53;26.30;80.10
68480;DHT22;55469;48.934;12.050;2023-08-20T00:20:21;26.30;80.20
68480;DHT22;55469;48.934;12.050;2023-08-20T00:22:47;26.30;81.00
68480;DHT22;55469;48.934;12.050;2023-08-20T00:25:15;26.20;82.10
68480;DHT22;55469;48.934;12.050;2023-08-20T00:27:42;26.30;84.80
68480;DHT22;55469;48.934;12.050;2023-08-20T00:30:09;26.20;81.40
68480;DHT22;55469;48.934;12.050;2023-08-20T00:32:36;26.20;83.10
68480;DHT22;55469;48.934;12.050;2023-08-20T00:35:02;26.20;85.30
68480;DHT22;55469;48.934;12.050;2023-08-20T00:37:29;26.20;86.90
68480;DHT22;55469;48.934;12.050;2023-08-20T00:39:56;26.20;85.70
68480;DHT22;55469;48.934;12.050;2023-08-20T00:42:22;26.20;85.30
68480;DHT22;55469;48.934;12.050;2023-08-20T00:44:51;26.20;82.90
68480;DHT22;55469;48.934;12.050;2023-08-20T00:47:18;26.20;82.30
68480;DHT22;55469;48.934;12.050;2023-08-20T00:49:44;26.10;81.20
68480;DHT22;55469;48.934;12.050;2023-08-20T00:52:12;26.10;81.00
68480;DHT22;55469;48.934;12.050;2023-08-20T00:54:39;26.10;84.50
68480;DHT22;55469;48.934;12.050;2023-08-20T00:57:06;26.10;84.50
68480;DHT22;55469;48.934;12.050;2023-08-20T00:59:34;26.10;87.10
68480;DHT22;55469;48.934;12.050;2023-08-20T01:02:00;26.10;84.00
68480;DHT22;55469;48.934;12.050;2023-08-20T01:04:27;26.10;84.60
68480;DHT22;55469;48.934;12.050;2023-08-20T01:10:15;26.10;81.20
68480;DHT22;55469;48.934;12.050;2023-08-20T01:12:46;26.00;81.20
68480;DHT22;55469;48.934;12.050;2023-08-20T01:15:12;25.90;80.60
68480;DHT22;55469;48.934;12.050;2023-08-20T01:17:43;25.90;80.80
68480;DHT22;55469;48.934;12.050;2023-08-20T01:20:11;25.90;80.90
68480;DHT22;55469;48.934;12.050;2023-08-20T01:23:14;25.80;82.20
68480;DHT22;55469;48.934;12.050;2023-08-20T01:26:25;25.80;81.70
68480;DHT22;55469;48.934;12.050;2023-08-20T01:28:56;25.90;81.80
68480;DHT22;55469;48.934;12.050;2023-08-20T01:31:22;25.80;80.80
68480;DHT22;55469;48.934;12.050;2023-08-20T01:33:50;25.80;83.90
68480;DHT22;55469;48.934;12.050;2023-08-20T01:36:17;25.80;84.90
68480;DHT22;55469;48.934;12.050;2023-08-20T01:38:43;25.80;84.50
68480;DHT22;55469;48.934;12.050;2023-08-20T01:41:08;25.80;86.80
68480;DHT22;55469;48.934;12.050;2023-08-20T01:43:35;25.90;86.70
68480;DHT22;55469;48.934;12.050;2023-08-20T01:46:00;25.80;84.60
68480;DHT22;55469;48.934;12.050;2023-08-20T01:48:26;25.90;83.80
68480;DHT22;55469;48.934;12.050;2023-08-20T01:50:52;25.80;82.10
68480;DHT22;55469;48.934;12.050;2023-08-20T01:53:17;25.80;81.80
68480;DHT22;55469;48.934;12.050;2023-08-20T01:55:43;25.80;81.30
68480;DHT22;55469;48.934;12.050;2023-08-20T01:58:09;25.70;81.40
68480;DHT22;55469;48.934;12.050;2023-08-20T02:00:35;25.70;81.50
68480;DHT22;55469;48.934;12.050;2023-08-20T02:03:00;25.70;81.60
68480;DHT22;55469;48.934;12.050;2023-08-20T02:05:26;25.60;81.40
68480;DHT22;55469;48.934;12.050;2023-08-20T02:07:52;25.60;83.50
68480;DHT22;55469;48.934;12.050;2023-08-20T02:10:19;25.60;81.20
68480;DHT22;55469;48.934;12.050;2023-08-20T02:12:44;25.70;83.70
68480;DHT22;55469;48.934;12.050;2023-08-20T02:15:10;25.70;85.80
68480;DHT22;55469;48.934;12.050;2023-08-20T02:17:36;25.60;82.40
68480;DHT22;55469;48.934;12.050;2023-08-20T02:20:02;25.70;84.80
68480;DHT22;55469;48.934;12.050;2023-08-20T02:22:29;25.60;81.00
68480;DHT22;55469;48.934;12.050;2023-08-20T02:24:55;25.60;82.60
68480;DHT22;55469;48.934;12.050;2023-08-20T02:27:21;25.60;83.10
68480;DHT22;55469;48.934;12.050;2023-08-20T02:29:47;25.60;83.10
68480;DHT22;55469;48.934;12.050;2023-08-20T02:32:13;25.50;81.30
68480;DHT22;55469;48.934;12.050;2023-08-20T02:34:38;25.50;81.40
68480;DHT22;55469;48.934;12.050;2023-08-20T02:37:04;25.50;82.00
68480;DHT22;55469;48.934;12.050;2023-08-20T02:39:30;25.50;84.00
68480;DHT22;55469;48.934;12.050;2023-08-20T02:41:56;25.50;82.60
68480;DHT22;55469;48.934;12.050;2023-08-20T02:44:23;25.50;84.60
68480;DHT22;55469;48.934;12.050;2023-08-20T02:46:48;25.50;83.10
68480;DHT22;55469;48.934;12.050;2023-08-20T02:49:14;25.50;86.90
68480;DHT22;55469;48.934;12.050;2023-08-20T02:51:40;25.50;83.60
68480;DHT22;55469;48.934;12.050;2023-08-20T02:54:07;25.50;83.70
68480;DHT22;55469;48.934;12.050;2023-08-20T02:56:33;25.40;82.30
68480;DHT22;55469;48.934;12.050;2023-08-20T02:58:59;25.40;82.00
68480;DHT22;55469;48.934;12.050;2023-08-20T03:01:26;25.40;82.90
68480;DHT22;55469;48.934;12.050;2023-08-20T03:03:51;25.30;82.30
68480;DHT22;55469;48.934;12.050;2023-08-20T03:06:17;25.30;82.90
68480;DHT22;55469;48.934;12.050;2023-08-20T03:08:43;25.30;83.40
68480;DHT22;55469;48.934;12.050;2023-08-20T03:11:09;25.30;82.50
68480;DHT22;55469;48.934;12.050;2023-08-20T03:13:35;25.30;83.60
68480;DHT22;55469;48.934;12.050;2023-08-20T03:16:01;25.30;83.20
68480;DHT22;55469;48.934;12.050;2023-08-20T03:18:27;25.20;82.20
68480;DHT22;55469;48.934;12.050;2023-08-20T03:20:55;25.20;82.20
68480;DHT22;55469;48.934;12.050;2023-08-20T03:23:21;25.20;82.50
68480;DHT22;55469;48.934;12.050;2023-08-20T03:25:48;25.20;84.80
68480;DHT22;55469;48.934;12.050;2023-08-20T03:28:14;25.20;86.10
68480;DHT22;55469;48.934;12.050;2023-08-20T03:30:40;25.20;82.80
68480;DHT22;55469;48.934;12.050;2023-08-20T03:33:06;25.20;82.50
68480;DHT22;55469;48.934;12.050;2023-08-20T03:35:32;25.10;82.50
68480;DHT22;55469;48.934;12.050;2023-08-20T03:37:57;25.10;83.90
68480;DHT22;55469;48.934;12.050;2023-08-20T03:40:23;25.20;87.90
68480;DHT22;55469;48.934;12.050;2023-08-20T03:42:49;25.20;84.70
68480;DHT22;55469;48.934;12.050;2023-08-20T03:45:15;25.10;82.20
68480;DHT22;55469;48.934;12.050;2023-08-20T03:47:40;25.10;87.00
68480;DHT22;55469;48.934;12.050;2023-08-20T03:50:10;25.10;82.80
68480;DHT22;55469;48.934;12.050;2023-08-20T03:52:36;25.10;87.10
68480;DHT22;55469;48.934;12.050;2023-08-20T03:55:02;25.10;83.50
68480;DHT22;55469;48.934;12.050;2023-08-20T03:57:28;25.10;86.00
68480;DHT22;55469;48.934;12.050;2023-08-20T03:59:54;25.00;83.00
68480;DHT22;55469;48.934;12.050;2023-08-20T04:02:20;25.00;82.20
68480;DHT22;55469;48.934;12.050;2023-08-20T04:04:45;25.00;82.10
68480;DHT22;55469;48.934;12.050;2023-08-20T04:07:11;25.00;87.00
68480;DHT22;55469;48.934;12.050;2023-08-20T04:09:37;25.00;85.00
68480;DHT22;55469;48.934;12.050;2023-08-20T04:12:04;25.00;86.20
68480;DHT22;55469;48.934;12.050;2023-08-20T04:14:30;25.00;81.90
68480;DHT22;55469;48.934;12.050;2023-08-20T04:16:56;25.00;82.60
68480;DHT22;55469;48.934;12.050;2023-08-20T04:19:21;24.90;82.00
68480;DHT22;55469;48.934;12.050;2023-08-20T04:21:47;24.80;83.00
68480;DHT22;55469;48.934;12.050;2023-08-20T04:24:13;24.90;83.00
68480;DHT22;55469;48.934;12.050;2023-08-20T04:26:38;24.80;84.10
68480;DHT22;55469;48.934;12.050;2023-08-20T04:29:04;24.80;84.70
68480;DHT22;55469;48.934;12.050;2023-08-20T04:31:31;24.80;84.50
68480;DHT22;55469;48.934;12.050;2023-08-20T04:33:56;24.80;84.10
68480;DHT22;55469;48.934;12.050;2023-08-20T04:36:22;24.80;83.80
68480;DHT22;55469;48.934;12.050;2023-08-20T04:38:48;24.80;83.40
68480;DHT22;55469;48.934;12.050;2023-08-20T04:41:13;24.80;82.20
68480;DHT22;55469;48.934;12.050;2023-08-20T04:43:39;24.80;84.00
68480;DHT22;55469;48.934;12.050;2023-08-20T04:46:05;24.70;82.00
68480;DHT22;55469;48.934;12.050;2023-08-20T04:48:30;24.60;82.70
68480;DHT22;55469;48.934;12.050;2023-08-20T04:50:56;24.60;83.50
68480;DHT22;55469;48.934;12.050;2023-08-20T04:53:22;24.60;85.20
68480;DHT22;55469;48.934;12.050;2023-08-20T04:55:48;24.60;83.50
68480;DHT22;55469;48.934;12.050;2023-08-20T04:58:13;24.60;82.20
68480;DHT22;55469;48.934;12.050;2023-08-20T05:00:39;24.50;82.20
68480;DHT22;55469;48.934;12.050;2023-08-20T05:03:05;24.60;83.80
68480;DHT22;55469;48.934;12.050;2023-08-20T05:05:30;24.60;83.40
68480;DHT22;55469;48.934;12.050;2023-08-20T05:07:56;24.60;81.70
68480;DHT22;55469;48.934;12.050;2023-08-20T05:10:22;24.60;81.90
68480;DHT22;55469;48.934;12.050;2023-08-20T05:12:47;24.60;81.70
68480;DHT22;55469;48.934;12.050;2023-08-20T05:15:13;24.60;82.00
68480;DHT22;55469;48.934;12.050;2023-08-20T05:17:39;24.60;82.60
68480;DHT22;55469;48.934;12.050;2023-08-20T05:20:05;24.60;82.20
68480;DHT22;55469;48.934;12.050;2023-08-20T05:22:31;24.60;85.00
68480;DHT22;55469;48.934;12.050;2023-08-20T05:24:57;24.60;82.10
68480;DHT22;55469;48.934;12.050;2023-08-20T05:27:23;24.60;84.20
68480;DHT22;55469;48.934;12.050;2023-08-20T05:29:48;24.60;84.10
68480;DHT22;55469;48.934;12.050;2023-08-20T05:32:14;24.60;83.10
68480;DHT22;55469;48.934;12.050;2023-08-20T05:34:41;24.60;82.00
68480;DHT22;55469;48.934;12.050;2023-08-20T05:37:07;24.60;82.90
68480;DHT22;55469;48.934;12.050;2023-08-20T05:39:37;24.60;82.60
68480;DHT22;55469;48.934;12.050;2023-08-20T05:42:06;24.60;82.50
68480;DHT22;55469;48.934;12.050;2023-08-20T05:44:32;24.60;83.10
68480;DHT22;55469;48.934;12.050;2023-08-20T05:46:58;24.60;84.10
68480;DHT22;55469;48.934;12.050;2023-08-20T05:49:24;24.60;82.90
68480;DHT22;55469;48.934;12.050;2023-08-20T05:51:49;24.60;83.60
68480;DHT22;55469;48.934;12.050;2023-08-20T05:54:15;24.60;82.40
68480;DHT22;55469;48.934;12.050;2023-08-20T05:56:41;24.60;83.60
68480;DHT22;55469;48.934;12.050;2023-08-20T05:59:06;24.60;82.20
68480;DHT22;55469;48.934;12.050;2023-08-20T06:01:32;24.60;85.40
68480;DHT22;55469;48.934;12.050;2023-08-20T06:03:58;24.60;82.00
68480;DHT22;55469;48.934;12.050;2023-08-20T06:06:25;24.60;82.00
68480;DHT22;55469;48.934;12.050;2023-08-20T06:08:51;24.60;81.60
68480;DHT22;55469;48.934;12.050;2023-08-20T06:11:17;24.60;82.80
68480;DHT22;55469;48.934;12.050;2023-08-20T06:13:43;24.60;82.60
68480;DHT22;55469;48.934;12.050;2023-08-20T06:16:09;24.60;81.40
68480;DHT22;55469;48.934;12.050;2023-08-20T06:18:34;24.60;84.20
68480;DHT22;55469;48.934;12.050;2023-08-20T06:21:00;24.60;82.10
68480;DHT22;55469;48.934;12.050;2023-08-20T06:23:26;24.60;81.80
68480;DHT22;55469;48.934;12.050;2023-08-20T06:25:51;24.60;84.30
68480;DHT22;55469;48.934;12.050;2023-08-20T06:28:17;24.60;84.40
68480;DHT22;55469;48.934;12.050;2023-08-20T06:30:44;24.60;82.70
68480;DHT22;55469;48.934;12.050;2023-08-20T06:33:10;24.60;83.90
68480;DHT22;55469;48.934;12.050;2023-08-20T06:35:36;24.60;82.80
68480;DHT22;55469;48.934;12.050;2023-08-20T06:38:02;24.70;84.60
68480;DHT22;55469;48.934;12.050;2023-08-20T06:40:28;24.70;85.10
68480;DHT22;55469;48.934;12.050;2023-08-20T06:42:53;24.70;85.30
68480;DHT22;55469;48.934;12.050;2023-08-20T06:45:19;24.70;85.20
68480;DHT22;55469;48.934;12.050;2023-08-20T06:47:45;24.70;84.80
68480;DHT22;55469;48.934;12.050;2023-08-20T06:50:10;24.70;84.50
68480;DHT22;55469;48.934;12.050;2023-08-20T06:52:36;24.70;86.10
68480;DHT22;55469;48.934;12.050;2023-08-20T06:55:02;24.70;83.80
68480;DHT22;55469;48.934;12.050;2023-08-20T06:57:28;24.70;85.00
68480;DHT22;55469;48.934;12.050;2023-08-20T06:59:53;24.70;82.90
68480;DHT22;55469;48.934;12.050;2023-08-20T07:02:19;24.70;84.70
68480;DHT22;55469;48.934;12.050;2023-08-20T07:04:45;24.70;85.30
68480;DHT22;55469;48.934;12.050;2023-08-20T07:07:12;24.70;85.70
68480;DHT22;55469;48.934;12.050;2023-08-20T07:09:38;24.80;85.70
68480;DHT22;55469;48.934;12.050;2023-08-20T07:12:05;24.80;85.10
68480;DHT22;55469;48.934;12.050;2023-08-20T07:14:30;24.80;85.70
68480;DHT22;55469;48.934;12.050;2023-08-20T07:16:56;24.80;84.40
68480;DHT22;55469;48.934;12.050;2023-08-20T07:19:22;24.80;84.10
68480;DHT22;55469;48.934;12.050;2023-08-20T07:21:48;24.80;85.20
68480;DHT22;55469;48.934;12.050;2023-08-20T07:24:13;24.80;85.30
68480;DHT22;55469;48.934;12.050;2023-08-20T07:26:39;24.80;85.10
68480;DHT22;55469;48.934;12.050;2023-08-20T07:29:05;24.80;85.00
68480;DHT22;55469;48.934;12.050;2023-08-20T07:31:32;24.80;85.10
68480;DHT22;55469;48.934;12.050;2023-08-20T07:34:00;24.80;85.30
68480;DHT22;55469;48.934;12.050;2023-08-20T07:36:26;24.80;85.00
68480;DHT22;55469;48.934;12.050;2023-08-20T07:38:53;24.80;85.30
68480;DHT22;55469;48.934;12.050;2023-08-20T07:41:20;24.90;85.00
68480;DHT22;55469;48.934;12.050;2023-08-20T07:43:47;24.80;84.90
68480;DHT22;55469;48.934;12.050;2023-08-20T07:46:13;24.80;84.00
68480;DHT22;55469;48.934;12.050;2023-08-20T07:48:39;24.90;82.00
68480;DHT22;55469;48.934;12.050;2023-08-20T07:51:06;24.90;82.20
68480;DHT22;55469;48.934;12.050;2023-08-20T07:53:33;24.90;84.60
68480;DHT22;55469;48.934;12.050;2023-08-20T07:56:00;25.00;83.60
68480;DHT22;55469;48.934;12.050;2023-08-20T07:58:26;24.90;82.60
68480;DHT22;55469;48.934;12.050;2023-08-20T08:00:52;25.00;83.10
68480;DHT22;55469;48.934;12.050;2023-08-20T08:03:18;25.00;82.10
68480;DHT22;55469;48.934;12.050;2023-08-20T08:05:47;25.00;81.00
68480;DHT22;55469;48.934;12.050;2023-08-20T08:08:15;25.00;81.20
68480;DHT22;55469;48.934;12.050;2023-08-20T08:10:44;25.00;83.50
68480;DHT22;55469;48.934;12.050;2023-08-20T08:13:14;25.10;83.00
68480;DHT22;55469;48.934;12.050;2023-08-20T08:15:41;25.10;82.30
68480;DHT22;55469;48.934;12.050;2023-08-20T08:18:07;25.10;81.30
68480;DHT22;55469;48.934;12.050;2023-08-20T08:20:33;25.10;83.00
68480;DHT22;55469;48.934;12.050;2023-08-20T08:23:00;25.10;82.80
68480;DHT22;55469;48.934;12.050;2023-08-20T08:25:26;25.10;80.30
68480;DHT22;55469;48.934;12.050;2023-08-20T08:27:52;25.20;81.00
68480;DHT22;55469;48.934;12.050;2023-08-20T08:30:18;25.20;80.60
68480;DHT22;55469;48.934;12.050;2023-08-20T08:32:44;25.20;80.40
68480;DHT22;55469;48.934;12.050;2023-08-20T08:35:09;25.20;80.30
68480;DHT22;55469;48.934;12.050;2023-08-20T08:37:35;25.20;79.90
68480;DHT22;55469;48.934;12.050;2023-08-20T08:40:02;25.30;80.40
68480;DHT22;55469;48.934;12.050;2023-08-20T08:42:31;25.30;80.60
68480;DHT22;55469;48.934;12.050;2023-08-20T08:44:59;25.30;80.30
68480;DHT22;55469;48.934;12.050;2023-08-20T08:47:26;25.30;80.60
68480;DHT22;55469;48.934;12.050;2023-08-20T08:49:54;25.40;83.50
68480;DHT22;55469;48.934;12.050;2023-08-20T08:52:22;25.40;80.80
68480;DHT22;55469;48.934;12.050;2023-08-20T08:54:48;25.40;80.30
68480;DHT22;55469;48.934;12.050;2023-08-20T08:57:15;25.40;82.20
68480;DHT22;55469;48.934;12.050;2023-08-20T08:59:42;25.50;81.40
68480;DHT22;55469;48.934;12.050;2023-08-20T09:02:12;25.50;82.00
68480;DHT22;55469;48.934;12.050;2023-08-20T09:04:41;25.50;82.30
68480;DHT22;55469;48.934;12.050;2023-08-20T09:07:14;25.50;80.80
68480;DHT22;55469;48.934;12.050;2023-08-20T09:09:44;25.50;80.40
68480;DHT22;55469;48.934;12.050;2023-08-20T09:12:19;25.50;80.60
68480;DHT22;55469;48.934;12.050;2023-08-20T09:14:49;25.60;80.90
68480;DHT22;55469;48.934;12.050;2023-08-20T09:17:16;25.60;80.70
68480;DHT22;55469;48.934;12.050;2023-08-20T09:19:43;25.70;80.20
68480;DHT22;55469;48.934;12.050;2023-08-20T09:22:12;25.70;81.40
68480;DHT22;55469;48.934;12.050;2023-08-20T09:24:44;25.70;80.30
68480;DHT22;55469;48.934;12.050;2023-08-20T09:27:14;25.70;81.70
68480;DHT22;55469;48.934;12.050;2023-08-20T09:29:56;25.70;80.50
68480;DHT22;55469;48.934;12.050;2023-08-20T09:32:26;25.70;79.90
68480;DHT22;55469;48.934;12.050;2023-08-20T09:34:54;25.80;80.40
68480;DHT22;55469;48.934;12.050;2023-08-20T09:37:22;25.80;81.50
68480;DHT22;55469;48.934;12.050;2023-08-20T09:39:49;25.80;80.30
68480;DHT22;55469;48.934;12.050;2023-08-20T09:42:15;25.80;80.30
68480;DHT22;55469;48.934;12.050;2023-08-20T09:44:43;25.90;80.00
68480;DHT22;55469;48.934;12.050;2023-08-20T09:47:15;25.90;81.50
68480;DHT22;55469;48.934;12.050;2023-08-20T09:49:42;25.90;80.10
68480;DHT22;55469;48.934;12.050;2023-08-20T09:52:12;25.90;79.50
68480;DHT22;55469;48.934;12.050;2023-08-20T09:55:11;26.00;79.10
68480;DHT22;55469;48.934;12.050;2023-08-20T09:57:40;26.10;80.20
68480;DHT22;55469;48.934;12.050;2023-08-20T10:00:08;26.10;79.00
68480;DHT22;55469;48.934;12.050;2023-08-20T10:02:35;26.10;79.60
68480;DHT22;55469;48.934;12.050;2023-08-20T10:05:02;26.10;78.80
68480;DHT22;55469;48.934;12.050;2023-08-20T10:07:33;26.10;79.00
68480;DHT22;55469;48.934;12.050;2023-08-20T10:10:02;26.10;80.10
68480;DHT22;55469;48.934;12.050;2023-08-20T10:12:30;26.20;80.20
68480;DHT22;55469;48.934;12.050;2023-08-20T10:14:57;26.20;79.90
68480;DHT22;55469;48.934;12.050;2023-08-20T10:17:23;26.20;78.40
68480;DHT22;55469;48.934;12.050;2023-08-20T10:19:53;26.30;78.60
68480;DHT22;55469;48.934;12.050;2023-08-20T10:22:19;26.30;78.50
68480;DHT22;55469;48.934;12.050;2023-08-20T10:24:50;26.40;79.40
68480;DHT22;55469;48.934;12.050;2023-08-20T10:27:28;26.40;77.90
68480;DHT22;55469;48.934;12.050;2023-08-20T10:29:58;26.40;78.00
68480;DHT22;55469;48.934;12.050;2023-08-20T10:35:09;26.50;77.60
68480;DHT22;55469;48.934;12.050;2023-08-20T10:37:35;26.50;77.40
68480;DHT22;55469;48.934;12.050;2023-08-20T10:40:03;26.50;79.00
68480;DHT22;55469;48.934;12.050;2023-08-20T10:42:30;26.50;77.30
68480;DHT22;55469;48.934;12.050;2023-08-20T10:45:05;26.60;77.70
68480;DHT22;55469;48.934;12.050;2023-08-20T10:47:44;26.60;77.40
68480;DHT22;55469;48.934;12.050;2023-08-20T10:50:11;26.60;76.90
68480;DHT22;55469;48.934;12.050;2023-08-20T10:52:41;26.70;76.70
68480;DHT22;55469;48.934;12.050;2023-08-20T10:55:13;26.70;76.90
68480;DHT22;55469;48.934;12.050;2023-08-20T10:57:40;26.70;78.50
68480;DHT22;55469;48.934;12.050;2023-08-20T11:00:07;26.80;77.70
68480;DHT22;55469;48.934;12.050;2023-08-20T11:02:40;26.80;76.70
68480;DHT22;55469;48.934;12.050;2023-08-20T11:05:20;26.80;76.50
68480;DHT22;55469;48.934;12.050;2023-08-20T11:07:48;26.90;75.80
68480;DHT22;55469;48.934;12.050;2023-08-20T11:10:15;26.90;76.00
68480;DHT22;55469;48.934;12.050;2023-08-20T11:12:42;26.90;75.50
68480;DHT22;55469;48.934;12.050;2023-08-20T11:15:10;27.00;75.80
68480;DHT22;55469;48.934;12.050;2023-08-20T11:17:42;27.00;75.70
68480;DHT22;55469;48.934;12.050;2023-08-20T11:20:09;27.00;76.90
68480;DHT22;55469;48.934;12.050;2023-08-20T11:22:38;27.10;75.30
68480;DHT22;55469;48.934;12.050;2023-08-20T11:25:04;27.10;75.40
68480;DHT22;55469;48.934;12.050;2023-08-20T11:27:30;27.10;76.50
68480;DHT22;55469;48.934;12.050;2023-08-20T11:29:58;27.10;77.90
68480;DHT22;55469;48.934;12.050;2023-08-20T11:32:24;27.20;75.20
68480;DHT22;55469;48.934;12.050;2023-08-20T11:34:49;27.20;74.90
68480;DHT22;55469;48.934;12.050;2023-08-20T11:37:21;27.20;75.70
68480;DHT22;55469;48.934;12.050;2023-08-20T11:39:48;27.20;76.40
68480;DHT22;55469;48.934;12.050;2023-08-20T11:42:15;27.20;74.30
68480;DHT22;55469;48.934;12.050;2023-08-20T11:44:45;27.30;74.20
68480;DHT22;55469;48.934;12.050;2023-08-20T11:47:16;27.40;73.90
68480;DHT22;55469;48.934;12.050;2023-08-20T11:49:43;27.40;75.40
68480;DHT22;55469;48.934;12.050;2023-08-20T11:52:18;27.40;74.00
68480;DHT22;55469;48.934;12.050;2023-08-20T11:54:46;27.40;73.70
68480;DHT22;55469;48.934;12.050;2023-08-20T11:57:12;27.50;73.70
68480;DHT22;55469;48.934;12.050;2023-08-20T11:59:38;27.50;73.90
68480;DHT22;55469;48.934;12.050;2023-08-20T12:02:04;27.60;73.00
68480;DHT22;55469;48.934;12.050;2023-08-20T12:04:30;27.60;73.10
68480;DHT22;55469;48.934;12.050;2023-08-20T12:07:09;27.70;72.80
68480;DHT22;55469;48.934;12.050;2023-08-20T12:09:38;27.70;72.30
68480;DHT22;55469;48.934;12.050;2023-08-20T12:12:06;27.70;74.30
68480;DHT22;55469;48.934;12.050;2023-08-20T12:14:33;27.70;73.10
68480;DHT22;55469;48.934;12.050;2023-08-20T12:16:59;27.80;73.40
68480;DHT22;55469;48.934;12.050;2023-08-20T12:19:25;27.80;73.30
68480;DHT22;55469;48.934;12.050;2023-08-20T12:21:51;27.90;71.90
68480;DHT22;55469;48.934;12.050;2023-08-20T12:24:17;27.90;75.30
68480;DHT22;55469;48.934;12.050;2023-08-20T12:26:44;27.90;74.70
68480;DHT22;55469;48.934;12.050;2023-08-20T12:29:10;28.00;74.60
68480;DHT22;55469;48.934;12.050;2023-08-20T12:31:36;28.00;72.90
68480;DHT22;55469;48.934;12.050;2023-08-20T12:34:02;28.00;71.60
68480;DHT22;55469;48.934;12.050;2023-08-20T12:36:27;28.10;73.10
68480;DHT22;55469;48.934;12.050;2023-08-20T12:38:55;28.10;72.10
68480;DHT22;55469;48.934;12.050;2023-08-20T12:41:21;28.10;74.00
68480;DHT22;55469;48.934;12.050;2023-08-20T12:43:47;28.10;72.10
68480;DHT22;55469;48.934;12.050;2023-08-20T12:46:12;28.20;74.00
68480;DHT22;55469;48.934;12.050;2023-08-20T12:48:39;28.20;71.40
68480;DHT22;55469;48.934;12.050;2023-08-20T12:51:05;28.30;72.20
68480;DHT22;55469;48.934;12.050;2023-08-20T12:53:32;28.30;73.90
68480;DHT22;55469;48.934;12.050;2023-08-20T12:55:58;28.30;73.90
68480;DHT22;55469;48.934;12.050;2023-08-20T12:58:23;28.30;72.00
68480;DHT22;55469;48.934;12.050;2023-08-20T13:00:50;28.30;74.60
68480;DHT22;55469;48.934;12.050;2023-08-20T13:03:17;28.40;76.00
68480;DHT22;55469;48.934;12.050;2023-08-20T13:05:44;28.40;74.40
68480;DHT22;55469;48.934;12.050;2023-08-20T13:08:10;28.50;74.80
68480;DHT22;55469;48.934;12.050;2023-08-20T13:10:40;28.50;71.90
68480;DHT22;55469;48.934;12.050;2023-08-20T13:13:09;28.50;74.50
68480;DHT22;55469;48.934;12.050;2023-08-20T13:15:36;28.50;75.80
68480;DHT22;55469;48.934;12.050;2023-08-20T13:18:02;28.60;74.20
68480;DHT22;55469;48.934;12.050;2023-08-20T13:20:29;28.60;75.20
68480;DHT22;55469;48.934;12.050;2023-08-20T13:22:55;28.60;73.20
68480;DHT22;55469;48.934;12.050;2023-08-20T13:25:21;28.70;73.10
68480;DHT22;55469;48.934;12.050;2023-08-20T13:27:47;28.70;73.50
68480;DHT22;55469;48.934;12.050;2023-08-20T13:30:13;28.70;72.90
68480;DHT22;55469;48.934;12.050;2023-08-20T13:32:39;28.80;73.40
68480;DHT22;55469;48.934;12.050;2023-08-20T13:35:05;28.80;75.40
68480;DHT22;55469;48.934;12.050;2023-08-20T13:37:32;28.80;74.90
68480;DHT22;55469;48.934;12.050;2023-08-20T13:39:58;28.80;74.80
68480;DHT22;55469;48.934;12.050;2023-08-20T13:42:24;28.90;74.60
68480;DHT22;55469;48.934;12.050;2023-08-20T13:44:50;28.90;73.90
68480;DHT22;55469;48.934;12.050;2023-08-20T13:47:16;28.90;76.20
68480;DHT22;55469;48.934;12.050;2023-08-20T13:49:41;29.00;74.80
68480;DHT22;55469;48.934;12.050;2023-08-20T13:52:07;29.00;74.60
68480;DHT22;55469;48.934;12.050;2023-08-20T13:54:35;29.00;75.50
68480;DHT22;55469;48.934;12.050;2023-08-20T13:57:02;29.00;74.40
68480;DHT22;55469;48.934;12.050;2023-08-20T13:59:29;29.10;75.50
68480;DHT22;55469;48.934;12.050;2023-08-20T14:01:58;29.10;74.80
68480;DHT22;55469;48.934;12.050;2023-08-20T14:04:24;29.10;74.80
68480;DHT22;55469;48.934;12.050;2023-08-20T14:06:50;29.20;74.50
68480;DHT22;55469;48.934;12.050;2023-08-20T14:09:16;29.20;74.30
68480;DHT22;55469;48.934;12.050;2023-08-20T14:11:45;29.20;74.50
68480;DHT22;55469;48.934;12.050;2023-08-20T14:14:11;29.30;73.80
68480;DHT22;55469;48.934;12.050;2023-08-20T14:16:37;29.30;74.80
68480;DHT22;55469;48.934;12.050;2023-08-20T14:19:03;29.30;74.80
68480;DHT22;55469;48.934;12.050;2023-08-20T14:21:28;29.30;74.60
68480;DHT22;55469;48.934;12.050;2023-08-20T14:23:54;29.40;74.80
68480;DHT22;55469;48.934;12.050;2023-08-20T14:26:20;29.50;74.90
68480;DHT22;55469;48.934;12.050;2023-08-20T14:28:45;29.50;74.40
68480;DHT22;55469;48.934;12.050;2023-08-20T14:31:11;29.50;74.50
68480;DHT22;55469;48.934;12.050;2023-08-20T14:33:38;29.50;74.70
68480;DHT22;55469;48.934;12.050;2023-08-20T14:36:04;29.60;74.30
68480;DHT22;55469;48.934;12.050;2023-08-20T14:38:30;29.60;74.10
68480;DHT22;55469;48.934;12.050;2023-08-20T14:41:03;29.70;74.80
68480;DHT22;55469;48.934;12.050;2023-08-20T14:43:30;29.70;73.60
68480;DHT22;55469;48.934;12.050;2023-08-20T14:45:56;29.70;74.20
68480;DHT22;55469;48.934;12.050;2023-08-20T14:48:22;29.80;73.60
68480;DHT22;55469;48.934;12.050;2023-08-20T14:50:49;29.80;73.40
68480;DHT22;55469;48.934;12.050;2023-08-20T14:53:15;29.90;73.60
68480;DHT22;55469;48.934;12.050;2023-08-20T14:55:41;30.00;74.30
68480;DHT22;55469;48.934;12.050;2023-08-20T14:58:06;30.00;73.10
68480;DHT22;55469;48.934;12.050;2023-08-20T15:00:33;30.10;73.30
68480;DHT22;55469;48.934;12.050;2023-08-20T15:02:59;30.10;73.30
68480;DHT22;55469;48.934;12.050;2023-08-20T15:05:25;30.20;75.00
68480;DHT22;55469;48.934;12.050;2023-08-20T15:07:51;30.30;73.20
68480;DHT22;55469;48.934;12.050;2023-08-20T15:10:17;30.30;73.10
68480;DHT22;55469;48.934;12.050;2023-08-20T15:12:44;30.30;72.80
68480;DHT22;55469;48.934;12.050;2023-08-20T15:15:09;30.40;73.10
68480;DHT22;55469;48.934;12.050;2023-08-20T15:17:35;30.40;73.00
68480;DHT22;55469;48.934;12.050;2023-08-20T15:20:02;30.50;73.00